createdAt,value
2023-06-30T00:00:38.297Z,15.56
2023-06-30T00:01:38.367Z,15.24
2023-06-30T00:02:38.476Z,15.23
2023-06-30T00:03:38.504Z,15.85
2023-06-30T00:04:38.487Z,15.31
2023-06-30T00:05:38.521Z,15.18
2023-06-30T00:06:38.548Z,15.19
2023-06-30T00:07:38.895Z,15.13
2023-06-30T00:08:38.654Z,15.59
2023-06-30T00:09:38.669Z,15.78
2023-06-30T00:10:38.732Z,16.48
2023-06-30T00:11:38.753Z,16.57
2023-06-30T00:12:38.796Z,17.04
2023-06-30T00:13:38.827Z,17.28
2023-06-30T00:14:38.853Z,17.42
2023-06-30T00:15:38.935Z,18.19
2023-06-30T00:16:38.979Z,18.06
2023-06-30T00:17:39.059Z,17.74
2023-06-30T00:18:39.041Z,17.96
2023-06-30T00:19:39.092Z,18.30
2023-06-30T00:20:39.140Z,18.57
2023-06-30T00:21:39.169Z,18.37
2023-06-30T00:22:39.184Z,18.96
2023-06-30T00:23:39.264Z,18.60
2023-06-30T00:24:39.287Z,18.98
2023-06-30T00:25:39.326Z,19.51
2023-06-30T00:26:39.390Z,19.65
2023-06-30T00:27:39.415Z,19.52
2023-06-30T00:28:39.446Z,19.45
2023-06-30T00:29:39.468Z,19.16
2023-06-30T00:30:39.540Z,19.90
2023-06-30T00:31:39.657Z,20.33
2023-06-30T00:32:39.666Z,20.00
2023-06-30T00:33:39.653Z,20.87
2023-06-30T00:34:39.703Z,20.94
2023-06-30T00:35:39.754Z,20.89
2023-06-30T00:36:39.770Z,21.04
2023-06-30T00:37:39.824Z,20.83
2023-06-30T00:38:39.955Z,21.05
2023-06-30T00:39:39.891Z,21.00
2023-06-30T00:40:39.945Z,20.89
2023-06-30T00:41:39.989Z,21.16
2023-06-30T00:42:40.033Z,20.87
2023-06-30T00:43:40.069Z,21.58
2023-06-30T00:44:40.130Z,21.16
2023-06-30T00:45:40.164Z,21.55
2023-06-30T00:46:40.237Z,21.13
2023-06-30T00:47:40.315Z,21.02
2023-06-30T00:48:40.276Z,21.56
2023-06-30T00:49:40.314Z,22.11
2023-06-30T00:50:40.385Z,22.79
2023-06-30T00:51:40.413Z,22.91
2023-06-30T00:52:40.457Z,22.24
2023-06-30T00:53:40.507Z,23.39
2023-06-30T00:54:40.552Z,23.27
2023-06-30T00:55:40.577Z,22.72
2023-06-30T00:56:40.607Z,22.56
2023-06-30T00:57:40.675Z,22.82
2023-06-30T00:58:40.707Z,22.66
2023-06-30T00:59:40.753Z,23.14
2023-06-30T01:00:40.801Z,23.23
2023-06-30T01:01:40.826Z,23.43
2023-06-30T01:02:40.949Z,23.70
2023-06-30T01:03:41.007Z,23.81
2023-06-30T01:04:41.044Z,23.60
2023-06-30T01:05:41.043Z,23.18
2023-06-30T01:06:41.044Z,24.04
2023-06-30T01:07:41.141Z,24.11
2023-06-30T01:08:41.113Z,24.34
2023-06-30T01:09:41.186Z,24.78
2023-06-30T01:10:41.224Z,24.12
2023-06-30T01:11:41.256Z,24.19
2023-06-30T01:12:41.293Z,23.78
2023-06-30T01:13:41.351Z,24.75
2023-06-30T01:14:41.398Z,24.04
2023-06-30T01:15:41.418Z,24.06
2023-06-30T01:16:41.541Z,24.59
2023-06-30T01:17:41.610Z,24.62
2023-06-30T01:18:41.546Z,24.60
2023-06-30T01:19:41.565Z,24.40
2023-06-30T01:20:41.617Z,24.14
2023-06-30T01:21:41.689Z,24.17
2023-06-30T01:22:41.702Z,24.35
2023-06-30T01:23:41.761Z,24.42
2023-06-30T01:24:41.834Z,24.59
2023-06-30T01:25:41.813Z,24.04
2023-06-30T01:26:41.865Z,24.84
2023-06-30T01:27:41.899Z,24.84
2023-06-30T01:28:41.963Z,24.54
2023-06-30T01:29:42.019Z,24.42
2023-06-30T01:30:42.083Z,23.87
2023-06-30T01:31:42.117Z,24.48
2023-06-30T01:32:42.176Z,24.59
2023-06-30T01:33:42.178Z,24.50
2023-06-30T01:34:42.234Z,24.51
2023-06-30T01:35:42.315Z,24.82
2023-06-30T01:36:42.313Z,25.23
2023-06-30T01:37:42.340Z,26.29
2023-06-30T01:38:42.400Z,26.05
2023-06-30T01:39:42.446Z,26.21
2023-06-30T01:40:42.492Z,26.64
2023-06-30T01:41:42.516Z,26.38
2023-06-30T01:42:42.550Z,26.22
2023-06-30T01:43:42.617Z,25.89
2023-06-30T01:44:42.647Z,25.97
2023-06-30T01:45:42.767Z,25.99
2023-06-30T01:46:42.870Z,25.76
2023-06-30T01:47:42.767Z,25.56
2023-06-30T01:48:42.831Z,25.63
2023-06-30T01:49:42.850Z,25.24
2023-06-30T01:50:42.875Z,26.01
2023-06-30T01:51:42.908Z,25.68
2023-06-30T01:52:42.995Z,25.76
2023-06-30T01:53:43.012Z,26.24
2023-06-30T01:54:43.059Z,26.09
2023-06-30T01:55:43.145Z,26.34
2023-06-30T01:56:43.158Z,26.22
2023-06-30T01:57:43.177Z,25.83
2023-06-30T01:58:43.242Z,25.56
2023-06-30T01:59:43.293Z,26.38
2023-06-30T02:00:43.304Z,26.35
2023-06-30T02:01:43.358Z,26.69
2023-06-30T02:02:43.472Z,26.60
2023-06-30T02:03:43.513Z,26.73
2023-06-30T02:04:43.447Z,26.67
2023-06-30T02:05:43.776Z,27.17
2023-06-30T02:06:43.550Z,26.44
2023-06-30T02:07:43.583Z,26.48
2023-06-30T02:08:43.631Z,26.26
2023-06-30T02:09:48.460Z,26.72
2023-06-30T02:10:44.687Z,26.74
2023-06-30T02:11:43.653Z,26.80
2023-06-30T02:12:43.638Z,26.81
2023-06-30T02:13:43.655Z,27.21
2023-06-30T02:14:43.616Z,27.45
2023-06-30T02:15:43.868Z,27.47
2023-06-30T02:16:43.676Z,27.30
2023-06-30T02:17:43.666Z,27.34
2023-06-30T02:18:43.604Z,27.23
2023-06-30T02:19:43.581Z,27.16
2023-06-30T02:20:43.613Z,27.73
2023-06-30T02:21:43.586Z,27.33
2023-06-30T02:22:43.587Z,27.50
2023-06-30T02:23:43.572Z,27.51
2023-06-30T02:24:43.642Z,27.94
2023-06-30T02:25:43.973Z,26.95
2023-06-30T02:26:43.734Z,27.49
2023-06-30T02:27:43.801Z,27.64
2023-06-30T02:28:43.807Z,27.76
2023-06-30T02:29:43.868Z,27.49
2023-06-30T02:30:43.916Z,27.45
2023-06-30T02:31:44.020Z,26.94
2023-06-30T02:32:44.017Z,27.51
2023-06-30T02:33:44.044Z,27.52
2023-06-30T02:34:44.104Z,27.70
2023-06-30T02:35:44.547Z,27.56
2023-06-30T02:36:44.176Z,28.05
2023-06-30T02:37:44.224Z,28.00
2023-06-30T02:38:44.273Z,28.47
2023-06-30T02:39:44.332Z,28.10
2023-06-30T02:40:44.357Z,28.69
2023-06-30T02:41:44.424Z,28.66
2023-06-30T02:42:44.464Z,29.17
2023-06-30T02:43:44.457Z,29.00
2023-06-30T02:44:44.534Z,28.70
2023-06-30T02:45:45.017Z,29.32
2023-06-30T02:46:44.633Z,29.11
2023-06-30T02:47:44.755Z,28.74
2023-06-30T02:48:44.715Z,28.22
2023-06-30T02:49:44.778Z,28.18
2023-06-30T02:50:44.799Z,28.18
2023-06-30T02:51:44.851Z,27.94
2023-06-30T02:52:44.912Z,27.50
2023-06-30T02:53:44.954Z,27.35
2023-06-30T02:54:44.988Z,28.33
2023-06-30T02:55:45.328Z,27.70
2023-06-30T02:56:45.080Z,27.39
2023-06-30T02:57:45.119Z,27.48
2023-06-30T02:58:45.169Z,27.46
2023-06-30T02:59:45.229Z,26.98
2023-06-30T03:00:45.276Z,27.42
2023-06-30T03:01:45.417Z,27.19
2023-06-30T03:02:45.394Z,27.24
2023-06-30T03:03:45.534Z,27.32
2023-06-30T03:04:45.432Z,27.52
2023-06-30T03:05:45.682Z,27.16
2023-06-30T03:06:45.563Z,27.13
2023-06-30T03:07:45.573Z,27.60
2023-06-30T03:08:45.618Z,27.28
2023-06-30T03:09:45.669Z,27.27
2023-06-30T03:10:45.708Z,27.78
2023-06-30T03:11:45.778Z,27.52
2023-06-30T03:12:45.788Z,27.87
2023-06-30T03:13:45.830Z,26.66
2023-06-30T03:14:45.923Z,27.13
2023-06-30T03:15:46.251Z,27.45
2023-06-30T03:16:46.106Z,27.65
2023-06-30T03:17:46.066Z,26.44
2023-06-30T03:18:46.101Z,26.84
2023-06-30T03:19:46.136Z,27.08
2023-06-30T03:20:46.197Z,27.04
2023-06-30T03:21:46.239Z,26.69
2023-06-30T03:22:46.281Z,27.22
2023-06-30T03:23:46.339Z,26.63
2023-06-30T03:24:46.366Z,26.82
2023-06-30T03:25:46.820Z,26.93
2023-06-30T03:26:46.467Z,27.00
2023-06-30T03:27:46.517Z,27.26
2023-06-30T03:28:46.576Z,26.71
2023-06-30T03:29:46.602Z,27.31
2023-06-30T03:30:46.712Z,27.17
2023-06-30T03:31:46.719Z,27.31
2023-06-30T03:32:46.806Z,27.27
2023-06-30T03:33:46.810Z,27.47
2023-06-30T03:34:46.892Z,26.92
2023-06-30T03:35:47.142Z,25.97
2023-06-30T03:36:46.960Z,26.39
2023-06-30T03:37:47.032Z,27.13
2023-06-30T03:38:47.068Z,26.93
2023-06-30T03:39:47.092Z,27.50
2023-06-30T03:40:47.209Z,27.09
2023-06-30T03:41:47.216Z,27.28
2023-06-30T03:42:47.252Z,27.01
2023-06-30T03:43:47.304Z,27.02
2023-06-30T03:44:47.329Z,27.40
2023-06-30T03:45:47.726Z,26.82
2023-06-30T03:46:47.484Z,26.92
2023-06-30T03:47:47.584Z,26.67
2023-06-30T03:48:47.531Z,25.98
2023-06-30T03:49:47.578Z,25.96
2023-06-30T03:50:47.606Z,26.54
2023-06-30T03:51:47.656Z,26.17
2023-06-30T03:52:47.695Z,26.09
2023-06-30T03:53:47.748Z,26.68
2023-06-30T03:54:47.797Z,26.23
2023-06-30T03:55:48.016Z,26.13
2023-06-30T03:56:47.921Z,25.88
2023-06-30T03:57:47.958Z,25.80
2023-06-30T03:58:48.043Z,25.67
2023-06-30T03:59:48.077Z,25.40
2023-06-30T04:00:48.133Z,25.32
2023-06-30T04:01:48.195Z,25.35
2023-06-30T04:02:48.264Z,24.87
2023-06-30T04:03:48.432Z,25.53
2023-06-30T04:04:48.354Z,25.24
2023-06-30T04:05:48.371Z,25.31
2023-06-30T04:06:48.411Z,25.35
2023-06-30T04:07:48.603Z,25.43
2023-06-30T04:08:48.537Z,25.62
2023-06-30T04:09:48.613Z,25.36
2023-06-30T04:10:48.660Z,25.65
2023-06-30T04:11:48.674Z,24.93
2023-06-30T04:12:48.744Z,24.87
2023-06-30T04:13:48.797Z,24.90
2023-06-30T04:14:48.834Z,25.04
2023-06-30T04:15:48.883Z,25.38
2023-06-30T04:16:48.996Z,25.13
2023-06-30T04:17:49.046Z,24.76
2023-06-30T04:18:49.024Z,24.92
2023-06-30T04:19:49.082Z,24.97
2023-06-30T04:20:49.129Z,24.64
2023-06-30T04:21:49.222Z,24.74
2023-06-30T04:22:49.230Z,24.72
2023-06-30T04:23:49.289Z,24.66
2023-06-30T04:24:49.361Z,24.15
2023-06-30T04:25:49.401Z,24.35
2023-06-30T04:26:49.434Z,23.44
2023-06-30T04:27:49.491Z,24.27
2023-06-30T04:28:49.522Z,23.79
2023-06-30T04:29:49.576Z,23.21
2023-06-30T04:30:49.646Z,23.98
2023-06-30T04:31:49.689Z,23.73
2023-06-30T04:32:49.824Z,23.80
2023-06-30T04:33:49.792Z,23.56
2023-06-30T04:34:49.846Z,23.64
2023-06-30T04:35:50.010Z,23.64
2023-06-30T04:36:49.921Z,23.49
2023-06-30T04:37:49.989Z,23.58
2023-06-30T04:38:50.104Z,23.43
2023-06-30T04:39:50.143Z,23.11
2023-06-30T04:40:50.150Z,23.03
2023-06-30T04:41:50.207Z,22.97
2023-06-30T04:42:50.240Z,22.61
2023-06-30T04:43:50.284Z,22.86
2023-06-30T04:44:50.348Z,22.98
2023-06-30T04:45:50.443Z,22.65
2023-06-30T04:46:50.433Z,23.13
2023-06-30T04:47:50.607Z,23.42
2023-06-30T04:48:50.529Z,23.30
2023-06-30T04:49:50.597Z,23.31
2023-06-30T04:50:50.632Z,22.97
2023-06-30T04:51:50.725Z,22.78
2023-06-30T04:52:50.759Z,22.80
2023-06-30T04:53:50.789Z,22.78
2023-06-30T04:54:50.884Z,21.91
2023-06-30T04:55:50.904Z,22.27
2023-06-30T04:56:50.975Z,22.32
2023-06-30T04:57:51.007Z,22.05
2023-06-30T04:58:51.056Z,21.87
2023-06-30T04:59:51.120Z,22.45
2023-06-30T05:00:58.670Z,22.27
2023-06-30T05:01:51.304Z,22.32
2023-06-30T05:02:51.258Z,22.34
2023-06-30T05:03:51.231Z,22.44
2023-06-30T05:04:51.166Z,22.27
2023-06-30T05:05:51.193Z,22.05
2023-06-30T05:06:51.136Z,22.45
2023-06-30T05:07:51.142Z,23.09
2023-06-30T05:08:51.096Z,23.22
2023-06-30T05:09:51.101Z,23.14
2023-06-30T05:10:51.087Z,23.30
2023-06-30T05:11:51.121Z,23.38
2023-06-30T05:12:51.079Z,23.55
2023-06-30T05:13:51.077Z,23.57
2023-06-30T05:14:51.048Z,23.83
2023-06-30T05:15:51.258Z,23.46
2023-06-30T05:16:51.129Z,23.59
2023-06-30T05:17:51.113Z,23.55
2023-06-30T05:18:51.110Z,23.38
2023-06-30T05:19:51.140Z,23.28
2023-06-30T05:20:51.193Z,22.42
2023-06-30T05:21:51.284Z,22.96
2023-06-30T05:22:51.308Z,22.71
2023-06-30T05:23:51.361Z,22.26
2023-06-30T05:24:51.435Z,22.27
2023-06-30T05:25:51.465Z,22.30
2023-06-30T05:26:51.543Z,22.35
2023-06-30T05:27:51.556Z,21.89
2023-06-30T05:29:00.497Z,22.04
2023-06-30T05:29:52.617Z,22.07
2023-06-30T05:30:51.600Z,22.06
2023-06-30T05:31:51.958Z,22.28
2023-06-30T05:32:52.378Z,22.33
2023-06-30T05:33:51.584Z,22.63
2023-06-30T05:34:51.559Z,21.26
2023-06-30T05:35:51.574Z,21.23
2023-06-30T05:36:52.790Z,21.00
2023-06-30T05:37:51.559Z,20.16
2023-06-30T05:38:51.564Z,19.34
2023-06-30T05:39:51.574Z,19.51
2023-06-30T05:40:51.529Z,19.79
2023-06-30T05:41:51.823Z,20.21
2023-06-30T05:42:51.508Z,20.80
2023-06-30T05:43:51.580Z,21.11
2023-06-30T05:44:51.530Z,23.50
2023-06-30T05:45:59.052Z,26.77
2023-06-30T05:46:51.901Z,26.88
2023-06-30T05:47:51.584Z,27.12
2023-06-30T05:48:51.509Z,27.64
2023-06-30T05:49:51.592Z,29.13
2023-06-30T05:50:51.505Z,31.56
2023-06-30T05:51:51.513Z,34.14
2023-06-30T05:52:51.528Z,35.61
2023-06-30T05:53:51.516Z,32.22
2023-06-30T05:54:51.504Z,30.88
2023-06-30T05:55:51.493Z,30.48
2023-06-30T05:56:51.861Z,27.84
2023-06-30T05:57:51.454Z,25.62
2023-06-30T05:58:51.470Z,24.95
2023-06-30T05:59:51.441Z,23.32
2023-06-30T06:00:51.435Z,21.97
2023-06-30T06:01:51.791Z,21.33
2023-06-30T06:02:51.568Z,20.17
2023-06-30T06:03:51.735Z,19.56
2023-06-30T06:04:51.585Z,18.00
2023-06-30T06:05:51.826Z,17.45
2023-06-30T06:06:51.869Z,17.67
2023-06-30T06:07:51.388Z,16.81
2023-06-30T06:08:51.467Z,15.35
2023-06-30T06:09:51.406Z,14.78
2023-06-30T06:10:52.339Z,13.13
2023-06-30T06:11:51.371Z,13.21
2023-06-30T06:12:51.392Z,13.02
2023-06-30T06:13:51.359Z,13.09
2023-06-30T06:14:51.355Z,13.41
2023-06-30T06:15:51.319Z,13.17
2023-06-30T06:16:51.381Z,13.32
2023-06-30T06:17:51.421Z,13.02
2023-06-30T06:18:51.446Z,13.39
2023-06-30T06:19:51.368Z,13.26
2023-06-30T06:20:51.382Z,14.13
2023-06-30T06:21:51.363Z,14.91
2023-06-30T06:22:51.859Z,15.80
2023-06-30T06:23:51.396Z,16.31
2023-06-30T06:24:51.478Z,16.83
2023-06-30T06:25:51.554Z,17.55
2023-06-30T06:26:51.391Z,17.09
2023-06-30T06:27:51.863Z,16.37
2023-06-30T06:28:51.470Z,15.88
2023-06-30T06:29:51.485Z,15.80
2023-06-30T06:30:51.579Z,15.69
2023-06-30T06:31:51.565Z,16.39
2023-06-30T06:32:51.889Z,15.97
2023-06-30T06:33:53.296Z,15.37
2023-06-30T06:34:51.614Z,15.05
2023-06-30T06:35:51.619Z,14.63
2023-06-30T06:36:51.609Z,14.31
2023-06-30T06:37:51.565Z,13.89
2023-06-30T06:38:51.592Z,13.54
2023-06-30T06:39:51.582Z,13.41
2023-06-30T06:40:51.603Z,13.18
2023-06-30T06:41:51.553Z,13.11
2023-06-30T06:42:51.838Z,12.88
2023-06-30T06:43:51.539Z,13.75
2023-06-30T06:44:51.607Z,14.14
2023-06-30T06:45:51.527Z,14.20
2023-06-30T06:46:51.510Z,14.04
2023-06-30T06:47:51.928Z,14.58
2023-06-30T06:48:51.562Z,15.23
2023-06-30T06:49:51.515Z,18.39
2023-06-30T06:50:51.528Z,20.14
2023-06-30T06:51:51.528Z,23.59
2023-06-30T06:52:51.861Z,26.82
2023-06-30T06:53:51.485Z,28.96
2023-06-30T06:54:51.469Z,28.00
2023-06-30T06:55:51.516Z,28.09
2023-06-30T06:56:51.460Z,33.42
2023-06-30T06:57:51.443Z,36.32
2023-06-30T06:58:51.488Z,33.73
2023-06-30T06:59:51.761Z,33.11
2023-06-30T07:00:51.439Z,32.91
2023-06-30T07:01:51.465Z,31.75
2023-06-30T07:02:51.489Z,27.39
2023-06-30T07:03:51.443Z,24.55
2023-06-30T07:04:51.402Z,22.77
2023-06-30T07:05:51.410Z,22.90
2023-06-30T07:06:51.396Z,21.89
2023-06-30T07:07:51.893Z,20.77
2023-06-30T07:08:51.383Z,21.11
2023-06-30T07:09:51.371Z,20.89
2023-06-30T07:10:51.462Z,19.84
2023-06-30T07:11:51.354Z,19.33
2023-06-30T07:12:51.378Z,19.30
2023-06-30T07:13:51.341Z,21.13
2023-06-30T07:14:51.345Z,21.81
2023-06-30T07:15:51.482Z,21.15
2023-06-30T07:16:51.360Z,20.06
2023-06-30T07:17:51.508Z,21.60
2023-06-30T07:18:51.306Z,21.76
2023-06-30T07:19:51.289Z,23.55
2023-06-30T07:20:51.306Z,24.52
2023-06-30T07:21:51.335Z,24.22
2023-06-30T07:22:51.284Z,25.08
2023-06-30T07:23:51.325Z,24.47
2023-06-30T07:24:51.356Z,23.63
2023-06-30T07:25:51.436Z,24.82
2023-06-30T07:26:51.481Z,25.31
2023-06-30T07:27:51.557Z,25.19
2023-06-30T07:28:51.706Z,25.36
2023-06-30T07:29:51.676Z,25.08
2023-06-30T07:30:51.710Z,24.72
2023-06-30T07:31:51.747Z,24.48
2023-06-30T07:32:51.875Z,22.83
2023-06-30T07:33:51.872Z,22.35
2023-06-30T07:34:51.924Z,22.70
2023-06-30T07:35:51.978Z,23.71
2023-06-30T07:36:52.018Z,23.65
2023-06-30T07:37:52.370Z,23.77
2023-06-30T07:38:52.181Z,23.09
2023-06-30T07:39:52.209Z,23.43
2023-06-30T07:40:56.539Z,23.01
2023-06-30T07:41:52.306Z,23.05
2023-06-30T07:42:52.257Z,23.04
2023-06-30T07:43:52.241Z,23.12
2023-06-30T07:44:52.231Z,22.92
2023-06-30T07:45:52.255Z,23.46
2023-06-30T07:46:52.237Z,23.29
2023-06-30T07:47:52.333Z,23.08
2023-06-30T07:48:52.294Z,22.89
2023-06-30T07:49:52.194Z,26.21
2023-06-30T07:51:06.884Z,26.79
2023-06-30T07:51:53.189Z,26.82
2023-06-30T07:52:52.175Z,26.96
2023-06-30T07:53:52.220Z,27.32
2023-06-30T07:54:52.141Z,28.39
2023-06-30T07:55:52.152Z,28.96
2023-06-30T07:56:52.116Z,27.72
2023-06-30T07:57:52.411Z,26.72
2023-06-30T07:58:52.152Z,23.65
2023-06-30T07:59:52.164Z,25.00
2023-06-30T08:00:52.195Z,24.79
2023-06-30T08:01:52.115Z,23.58
2023-06-30T08:02:52.308Z,22.87
2023-06-30T08:03:52.327Z,22.53
2023-06-30T08:04:52.165Z,23.59
2023-06-30T08:05:52.404Z,22.94
2023-06-30T08:06:52.101Z,21.96
2023-06-30T08:07:52.203Z,21.82
2023-06-30T08:08:52.131Z,21.37
2023-06-30T08:09:52.163Z,21.40
2023-06-30T08:10:52.184Z,20.24
2023-06-30T08:11:52.290Z,19.94
2023-06-30T08:12:52.272Z,18.78
2023-06-30T08:13:52.352Z,15.90
2023-06-30T08:14:52.328Z,13.88
2023-06-30T08:15:52.532Z,13.58
2023-06-30T08:16:52.580Z,12.91
2023-06-30T08:17:57.465Z,12.86
2023-06-30T08:18:53.539Z,12.82
2023-06-30T08:19:52.545Z,12.40
2023-06-30T08:20:52.443Z,12.09
2023-06-30T08:21:52.488Z,12.83
2023-06-30T08:22:52.935Z,12.12
2023-06-30T08:23:52.473Z,11.58
2023-06-30T08:24:53.376Z,11.16
2023-06-30T08:25:52.543Z,10.28
2023-06-30T08:26:52.574Z,10.01
2023-06-30T08:27:52.935Z,10.17
2023-06-30T08:28:52.619Z,9.74
2023-06-30T08:29:52.619Z,9.07
2023-06-30T08:30:52.675Z,8.98
2023-06-30T08:31:52.676Z,8.62
2023-06-30T08:32:52.962Z,9.56
2023-06-30T08:33:52.679Z,9.14
2023-06-30T08:34:52.692Z,10.41
2023-06-30T08:35:52.712Z,10.35
2023-06-30T08:36:52.738Z,10.73
2023-06-30T08:37:54.202Z,10.94
2023-06-30T08:38:52.740Z,10.78
2023-06-30T08:39:52.704Z,11.61
2023-06-30T08:40:52.751Z,12.67
2023-06-30T08:41:52.743Z,12.86
2023-06-30T08:42:52.692Z,13.57
2023-06-30T08:43:52.716Z,15.76
2023-06-30T08:44:52.702Z,16.39
2023-06-30T08:45:52.796Z,17.15
2023-06-30T08:46:52.877Z,18.75
2023-06-30T08:47:52.883Z,18.42
2023-06-30T08:48:52.900Z,17.12
2023-06-30T08:49:52.949Z,15.84
2023-06-30T08:50:53.023Z,17.01
2023-06-30T08:51:53.051Z,18.11
2023-06-30T08:52:53.131Z,17.72
2023-06-30T08:53:53.404Z,18.13
2023-06-30T08:54:53.253Z,18.49
2023-06-30T08:55:53.305Z,18.47
2023-06-30T08:56:53.367Z,18.49
2023-06-30T08:57:53.491Z,18.59
2023-06-30T08:58:53.492Z,18.69
2023-06-30T08:59:53.624Z,18.56
2023-06-30T09:00:53.712Z,18.85
2023-06-30T09:01:53.690Z,19.75
2023-06-30T09:02:53.755Z,19.84
2023-06-30T09:03:54.002Z,19.54
2023-06-30T09:04:53.917Z,20.34
2023-06-30T09:05:53.954Z,21.36
2023-06-30T09:06:53.993Z,22.00
2023-06-30T09:07:54.020Z,23.14
2023-06-30T09:08:54.114Z,24.19
2023-06-30T09:09:54.158Z,23.52
2023-06-30T09:10:54.238Z,22.54
2023-06-30T09:11:54.275Z,21.44
2023-06-30T09:12:54.342Z,22.99
2023-06-30T09:13:54.430Z,25.69
2023-06-30T09:14:54.507Z,25.07
2023-06-30T09:15:54.549Z,26.79
2023-06-30T09:16:54.594Z,28.22
2023-06-30T09:17:54.623Z,28.95
2023-06-30T09:18:54.961Z,29.20
2023-06-30T09:19:54.816Z,31.37
2023-06-30T09:20:54.835Z,31.57
2023-06-30T09:21:54.852Z,28.22
2023-06-30T09:22:56.782Z,29.37
2023-06-30T09:23:55.446Z,26.14
2023-06-30T09:24:55.015Z,25.66
2023-06-30T09:25:55.146Z,25.77
2023-06-30T09:26:55.133Z,26.65
2023-06-30T09:27:55.234Z,26.93
2023-06-30T09:28:55.549Z,25.80
2023-06-30T09:29:55.446Z,24.71
2023-06-30T09:30:55.429Z,23.68
2023-06-30T09:31:55.521Z,21.20
2023-06-30T09:32:55.565Z,19.30
2023-06-30T09:33:55.530Z,18.60
2023-06-30T09:34:55.602Z,18.91
2023-06-30T09:35:55.578Z,22.34
2023-06-30T09:36:55.688Z,22.56
2023-06-30T09:37:55.680Z,25.05
2023-06-30T09:38:55.627Z,28.12
2023-06-30T09:39:55.661Z,31.60
2023-06-30T09:40:55.620Z,32.49
2023-06-30T09:41:55.669Z,34.40
2023-06-30T09:42:55.740Z,34.59
2023-06-30T09:43:55.797Z,36.66
2023-06-30T09:44:55.855Z,38.50
2023-06-30T09:45:55.931Z,38.12
2023-06-30T09:46:55.993Z,39.20
2023-06-30T09:47:56.190Z,35.47
2023-06-30T09:48:56.454Z,32.76
2023-06-30T09:49:56.171Z,30.34
2023-06-30T09:50:56.187Z,28.09
2023-06-30T09:51:56.244Z,24.22
2023-06-30T09:52:56.317Z,22.82
2023-06-30T09:53:56.433Z,21.83
2023-06-30T09:54:56.441Z,20.38
2023-06-30T09:55:56.509Z,19.24
2023-06-30T09:56:56.510Z,18.64
2023-06-30T09:57:56.589Z,18.66
2023-06-30T09:58:58.001Z,17.63
2023-06-30T09:59:56.947Z,17.00
2023-06-30T10:00:56.705Z,15.29
2023-06-30T10:01:56.799Z,15.23
2023-06-30T10:02:56.824Z,14.75
2023-06-30T10:03:57.074Z,14.70
2023-06-30T10:04:56.810Z,15.04
2023-06-30T10:05:56.920Z,14.89
2023-06-30T10:06:56.953Z,14.77
2023-06-30T10:07:56.963Z,14.79
2023-06-30T10:08:57.011Z,13.73
2023-06-30T10:09:57.464Z,13.18
2023-06-30T10:10:57.175Z,13.14
2023-06-30T10:11:57.078Z,14.53
2023-06-30T10:12:57.184Z,14.87
2023-06-30T10:13:57.182Z,15.19
2023-06-30T10:14:57.241Z,15.04
2023-06-30T10:15:57.266Z,14.55
2023-06-30T10:16:57.349Z,14.45
2023-06-30T10:17:57.449Z,13.93
2023-06-30T10:18:57.419Z,13.59
2023-06-30T10:19:57.491Z,12.81
2023-06-30T10:20:57.538Z,13.20
2023-06-30T10:21:57.639Z,13.60
2023-06-30T10:22:57.676Z,14.38
2023-06-30T10:23:57.690Z,14.08
2023-06-30T10:24:57.845Z,14.33
2023-06-30T10:25:58.058Z,14.08
2023-06-30T10:26:57.897Z,13.95
2023-06-30T10:27:57.942Z,13.40
2023-06-30T10:28:58.005Z,13.02
2023-06-30T10:29:58.102Z,13.19
2023-06-30T10:30:58.143Z,14.21
2023-06-30T10:31:58.284Z,15.66
2023-06-30T10:32:58.339Z,16.50
2023-06-30T10:33:58.343Z,17.37
2023-06-30T10:34:58.540Z,18.08
2023-06-30T10:35:58.466Z,19.29
2023-06-30T10:36:58.511Z,20.73
2023-06-30T10:37:58.567Z,21.24
2023-06-30T10:38:58.585Z,22.38
2023-06-30T10:39:58.950Z,22.72
2023-06-30T10:40:58.721Z,23.11
2023-06-30T10:41:58.757Z,25.04
2023-06-30T10:42:58.765Z,27.24
2023-06-30T10:43:58.839Z,28.21
2023-06-30T10:44:58.868Z,29.45
2023-06-30T10:45:58.891Z,29.61
2023-06-30T10:46:59.072Z,29.70
2023-06-30T10:47:59.026Z,30.09
2023-06-30T10:48:58.994Z,29.97
2023-06-30T10:49:59.070Z,31.94
2023-06-30T10:50:59.106Z,33.50
2023-06-30T10:51:59.188Z,33.39
2023-06-30T10:52:59.201Z,33.08
2023-06-30T10:53:59.239Z,34.02
2023-06-30T10:54:59.494Z,33.34
2023-06-30T10:55:59.329Z,33.10
2023-06-30T10:56:59.347Z,35.28
2023-06-30T10:57:59.404Z,35.64
2023-06-30T10:58:59.441Z,35.59
2023-06-30T10:59:59.958Z,35.73
2023-06-30T11:00:59.500Z,36.63
2023-06-30T11:01:59.529Z,35.80
2023-06-30T11:02:59.743Z,36.57
2023-06-30T11:03:59.963Z,36.37
2023-06-30T11:05:00.015Z,37.59
2023-06-30T11:05:59.678Z,37.24
2023-06-30T11:06:59.765Z,37.48
2023-06-30T11:07:59.754Z,37.84
2023-06-30T11:08:59.776Z,32.91
2023-06-30T11:09:59.857Z,30.85
2023-06-30T11:10:59.865Z,30.69
2023-06-30T11:11:59.888Z,29.93
2023-06-30T11:12:59.988Z,30.04
2023-06-30T11:13:59.997Z,30.60
2023-06-30T11:15:00.105Z,30.27
2023-06-30T11:16:00.124Z,31.48
2023-06-30T11:17:00.134Z,31.92
2023-06-30T11:18:00.275Z,31.63
2023-06-30T11:19:00.403Z,32.15
2023-06-30T11:20:00.460Z,33.23
2023-06-30T11:21:00.351Z,34.40
2023-06-30T11:22:00.336Z,34.29
2023-06-30T11:23:00.357Z,34.69
2023-06-30T11:24:00.436Z,35.02
2023-06-30T11:25:00.440Z,35.45
2023-06-30T11:26:00.483Z,36.10
2023-06-30T11:27:00.504Z,36.30
2023-06-30T11:28:00.568Z,36.19
2023-06-30T11:29:00.592Z,35.74
2023-06-30T11:30:00.695Z,36.55
2023-06-30T11:31:03.743Z,35.39
2023-06-30T11:32:00.660Z,36.30
2023-06-30T11:33:00.761Z,36.09
2023-06-30T11:34:00.641Z,34.93
2023-06-30T11:35:00.643Z,34.73
2023-06-30T11:36:00.701Z,34.02
2023-06-30T11:37:00.628Z,34.19
2023-06-30T11:38:00.643Z,33.85
2023-06-30T11:39:00.599Z,33.56
2023-06-30T11:40:00.661Z,33.76
2023-06-30T11:41:00.719Z,33.97
2023-06-30T11:42:00.595Z,33.84
2023-06-30T11:43:00.586Z,33.64
2023-06-30T11:44:00.596Z,34.10
2023-06-30T11:45:00.582Z,34.09
2023-06-30T11:46:02.634Z,33.68
2023-06-30T11:47:00.773Z,33.73
2023-06-30T11:48:00.768Z,33.71
2023-06-30T11:49:00.823Z,33.72
2023-06-30T11:50:00.824Z,33.86
2023-06-30T11:51:00.868Z,33.92
2023-06-30T11:52:02.251Z,33.90
2023-06-30T11:53:00.905Z,33.42
2023-06-30T11:54:00.897Z,32.95
2023-06-30T11:55:00.957Z,33.09
2023-06-30T11:56:00.961Z,32.72
2023-06-30T11:57:00.973Z,32.15
2023-06-30T11:58:02.168Z,31.88
2023-06-30T11:59:01.008Z,31.95
2023-06-30T12:00:01.104Z,31.83
2023-06-30T12:01:01.071Z,32.11
2023-06-30T12:02:01.090Z,31.94
2023-06-30T12:03:01.216Z,31.03
2023-06-30T12:04:01.282Z,31.35
2023-06-30T12:05:01.231Z,31.46
2023-06-30T12:06:01.251Z,30.57
2023-06-30T12:07:01.247Z,29.40
2023-06-30T12:08:01.249Z,30.04
2023-06-30T12:09:01.289Z,30.24
2023-06-30T12:10:01.311Z,29.84
2023-06-30T12:11:01.327Z,29.81
2023-06-30T12:12:01.326Z,29.42
2023-06-30T12:13:01.450Z,29.25
2023-06-30T12:14:01.483Z,29.64
2023-06-30T12:15:01.442Z,29.12
2023-06-30T12:16:01.487Z,29.00
2023-06-30T12:17:01.448Z,28.76
2023-06-30T12:18:01.561Z,28.15
2023-06-30T12:19:01.477Z,27.98
2023-06-30T12:20:01.551Z,27.54
2023-06-30T12:21:01.547Z,27.22
2023-06-30T12:22:01.574Z,27.53
2023-06-30T12:23:01.602Z,27.42
2023-06-30T12:24:01.593Z,27.31
2023-06-30T12:25:01.648Z,27.01
2023-06-30T12:26:01.627Z,27.20
2023-06-30T12:27:01.681Z,26.75
2023-06-30T12:28:01.692Z,27.11
2023-06-30T12:29:01.747Z,26.49
2023-06-30T12:30:02.041Z,25.89
2023-06-30T12:31:01.758Z,25.65
2023-06-30T12:32:01.928Z,25.61
2023-06-30T12:33:02.004Z,25.72
2023-06-30T12:34:01.861Z,25.35
2023-06-30T12:35:04.149Z,24.93
2023-06-30T12:36:01.823Z,25.06
2023-06-30T12:37:01.836Z,24.35
2023-06-30T12:38:01.800Z,24.07
2023-06-30T12:39:01.848Z,23.34
2023-06-30T12:40:01.791Z,23.68
2023-06-30T12:41:01.782Z,23.25
2023-06-30T12:42:01.834Z,22.92
2023-06-30T12:43:01.760Z,22.20
2023-06-30T12:44:01.760Z,22.06
2023-06-30T12:45:01.772Z,21.98
2023-06-30T12:46:01.790Z,21.65
2023-06-30T12:47:01.750Z,21.81
2023-06-30T12:48:01.837Z,21.46
2023-06-30T12:49:01.748Z,20.83
2023-06-30T12:50:01.746Z,21.30
2023-06-30T12:51:01.752Z,20.53
2023-06-30T12:52:03.773Z,20.66
2023-06-30T12:53:01.806Z,21.08